Time;durP1;ratioP1;P1;durP2;ratioP2;P2;SDS_P1;SDS_P2;PMS_P1;PMS_P2;Temp;Humidity;BMP_temperature;BMP_pressure;BME280_temperature;BME280_humidity;BME280_pressure;Samples;Min_cycle;Max_cycle;Signal;HPM_P1;HPM_P2
2022/03/27 00:00:37;;;;;;;24.40;13.40;;;;;;;0.85;85.02;94026.97;2098009;28;20065;-83
2022/03/27 00:01:39;;;;;;;23.45;12.95;;;;;;;0.73;84.81;94023.25;2088100;28;20409;-82
2022/03/27 00:02:41;;;;;;;21.63;12.65;;;;;;;0.71;84.55;94025.44;2098626;28;20025;-83
2022/03/27 00:03:42;;;;;;;21.60;13.02;;;;;;;0.70;86.24;94028.41;2098596;28;20026;-82
2022/03/27 00:04:43;;;;;;;24.27;13.18;;;;;;;0.72;86.04;94021.72;2105659;28;20031;-82
2022/03/27 00:05:44;;;;;;;23.38;13.70;;;;;;;0.73;84.60;94028.50;2101053;28;20051;-82
2022/03/27 00:06:45;;;;;;;26.92;14.00;;;;;;;0.59;86.26;94022.06;2093347;28;20025;-84
2022/03/27 00:07:46;;;;;;;23.73;12.82;;;;;;;0.63;85.83;94026.34;2089704;28;20029;-81
2022/03/27 00:08:47;;;;;;;23.08;13.25;;;;;;;0.57;86.16;94030.28;2090919;28;20024;-82
2022/03/27 00:09:48;;;;;;;26.02;13.80;;;;;;;0.64;85.90;94027.09;2089861;28;20033;-82
2022/03/27 00:12:09;;;;;;;25.13;13.73;;;;;;;1.07;83.57;94029.13;2104871;28;20126;-80
2022/03/27 00:13:10;;;;;;;22.65;11.85;;;;;;;0.86;84.25;94028.50;2098134;28;20447;-84
2022/03/27 00:14:10;;;;;;;23.25;13.45;;;;;;;0.81;85.83;94034.00;2090171;28;20020;-80
2022/03/27 00:15:11;;;;;;;25.60;12.80;;;;;;;0.69;86.72;94027.63;2098070;28;20023;-82
2022/03/27 00:16:13;;;;;;;21.15;12.88;;;;;;;0.70;85.98;94031.81;2098055;28;20027;-83
2022/03/27 00:17:14;;;;;;;19.55;12.55;;;;;;;0.87;84.83;94030.03;2089723;28;20055;-80
2022/03/27 00:18:15;;;;;;;24.08;12.90;;;;;;;0.55;84.66;94029.06;2089957;28;20102;-83
2022/03/27 00:19:16;;;;;;;25.75;13.57;;;;;;;0.48;86.28;94027.78;2106729;28;20097;-82
2022/03/27 00:20:17;;;;;;;29.33;13.15;;;;;;;0.46;86.15;94024.69;2106655;28;20016;-82
2022/03/27 00:21:20;;;;;;;24.58;13.27;;;;;;;0.78;84.38;94032.78;2097635;28;20085;-80
2022/03/27 00:22:22;;;;;;;20.15;11.85;;;;;;;0.60;85.17;94024.34;2082523;28;20025;-82
2022/03/27 00:23:23;;;;;;;28.13;12.50;;;;;;;0.49;85.43;94025.91;2082077;28;20417;-81
2022/03/27 00:24:24;;;;;;;23.38;13.00;;;;;;;0.55;86.67;94029.06;2081132;28;20021;-84
2022/03/27 00:25:25;;;;;;;24.27;12.70;;;;;;;0.65;85.52;94024.13;2091739;28;20100;-81
2022/03/27 00:26:26;;;;;;;23.33;13.50;;;;;;;0.71;85.01;94024.69;2089856;28;20033;-83
2022/03/27 00:27:27;;;;;;;24.35;13.25;;;;;;;0.73;84.83;94025.13;2097427;28;20432;-79
2022/03/27 00:28:32;;;;;;;21.13;12.43;;;;;;;0.69;84.50;94025.00;2110583;28;20441;-82
2022/03/27 00:29:33;;;;;;;27.92;13.13;;;;;;;0.66;85.62;94030.16;2104375;28;20020;-80
2022/03/27 00:30:34;;;;;;;26.90;13.75;;;;;;;0.54;85.44;94033.56;2103893;28;20074;-83
2022/03/27 00:31:38;;;;;;;26.63;13.20;;;;;;;0.45;87.10;94027.66;2089263;28;20029;-84
2022/03/27 00:32:47;;;;;;;26.08;13.77;;;;;;;0.54;87.06;94020.41;2098298;28;20412;-81
2022/03/27 00:33:48;;;;;;;20.85;12.35;;;;;;;0.64;85.68;94019.97;2105952;28;20034;-81
2022/03/27 00:34:49;;;;;;;20.42;12.60;;;;;;;0.51;85.55;94026.34;2090960;28;20031;-83
2022/03/27 00:35:50;;;;;;;26.15;13.05;;;;;;;0.39;86.66;94024.47;2089524;28;20572;-81
2022/03/27 00:36:51;;;;;;;28.90;12.20;;;;;;;0.56;85.89;94026.09;2081191;28;20041;-81
2022/03/27 00:37:52;;;;;;;27.33;12.40;;;;;;;0.35;85.32;94023.59;2080046;28;20026;-82
2022/03/27 00:38:53;;;;;;;23.52;12.65;;;;;;;0.37;86.72;94029.28;2084004;28;20091;-80
2022/03/27 00:39:54;;;;;;;23.42;12.13;;;;;;;0.38;87.28;94024.78;2081236;28;20557;-81
2022/03/27 00:40:56;;;;;;;25.27;13.90;;;;;;;0.20;86.71;94021.59;2081472;28;20029;-81
2022/03/27 00:41:57;;;;;;;20.45;11.82;;;;;;;0.33;87.39;94025.00;2096379;28;20485;-80
2022/03/27 00:42:58;;;;;;;25.10;13.10;;;;;;;0.46;85.92;94024.69;2089716;28;20111;-83
2022/03/27 00:43:59;;;;;;;20.88;12.07;;;;;;;0.36;86.44;94027.75;2085449;28;20040;-80
2022/03/27 00:45:00;;;;;;;22.50;12.52;;;;;;;0.38;86.52;94025.56;2089464;28;20784;-81
2022/03/27 00:46:01;;;;;;;23.23;12.25;;;;;;;0.23;86.68;94026.97;2081589;28;20116;-82
2022/03/27 00:47:03;;;;;;;22.60;12.73;;;;;;;0.23;87.69;94018.34;2084890;28;20382;-84
2022/03/27 00:48:05;;;;;;;23.52;13.02;;;;;;;0.25;88.48;94022.16;2088275;28;20064;-82
2022/03/27 00:49:05;;;;;;;23.17;11.95;;;;;;;0.32;87.88;94024.25;2081620;28;20022;-84
2022/03/27 00:50:07;;;;;;;22.42;11.95;;;;;;;0.24;87.58;94020.63;2101584;28;20035;-81
2022/03/27 00:51:08;;;;;;;23.33;13.38;;;;;;;0.31;87.46;94020.09;2105194;28;20481;-79
2022/03/27 00:52:09;;;;;;;23.55;12.20;;;;;;;0.19;86.62;94026.09;2080486;28;20021;-81
2022/03/27 00:53:12;;;;;;;20.55;12.32;;;;;;;0.14;87.48;94025.56;2097910;28;20028;-83
2022/03/27 00:54:13;;;;;;;21.73;11.80;;;;;;;0.26;87.43;94022.91;2106461;28;20158;-83
2022/03/27 00:55:14;;;;;;;23.40;12.75;;;;;;;0.31;87.20;94027.19;2089514;28;20021;-81
2022/03/27 00:56:15;;;;;;;22.05;12.13;;;;;;;0.26;87.84;94025.53;2087732;28;20025;-81
2022/03/27 00:57:16;;;;;;;21.40;12.07;;;;;;;0.39;86.58;94021.81;2095635;28;20024;-83
2022/03/27 00:58:17;;;;;;;20.20;12.23;;;;;;;0.25;86.13;94021.38;2099235;28;20024;-81
2022/03/27 00:59:18;;;;;;;26.13;12.27;;;;;;;0.42;86.52;94023.81;2105081;28;20077;-83
2022/03/27 01:00:41;;;;;;;22.00;11.48;;;;;;;0.43;86.68;94019.31;2089227;28;20466;-83
2022/03/27 01:01:43;;;;;;;23.15;11.98;;;;;;;0.29;85.56;94018.88;2067988;28;20041;-82
2022/03/27 01:02:44;;;;;;;23.08;12.13;;;;;;;0.23;87.21;94016.47;2094249;28;20036;-84
2022/03/27 01:03:48;;;;;;;24.67;13.00;;;;;;;0.21;87.97;94020.50;2105458;28;20024;-82
2022/03/27 01:04:53;;;;;;;28.45;13.02;;;;;;;0.18;87.62;94019.31;2115036;27;20102;-82
2022/03/27 01:05:58;;;;;;;27.25;12.85;;;;;;;0.19;87.78;94017.44;2106260;28;20028;-83
2022/03/27 01:06:59;;;;;;;18.70;10.70;;;;;;;0.11;88.66;94013.06;2086988;28;20390;-82
2022/03/27 01:08:04;;;;;;;20.70;11.85;;;;;;;0.19;88.03;94010.34;2089490;28;20115;-80
2022/03/27 01:10:27;;;;;;;24.92;12.30;;;;;;;0.11;88.58;94011.19;2100473;28;20021;-83
2022/03/27 01:11:28;;;;;;;24.77;12.18;;;;;;;0.11;88.25;94013.81;2092494;28;20032;-83
2022/03/27 01:12:36;;;;;;;29.63;12.23;;;;;;;-0.03;88.33;94008.88;2093586;28;20044;-82
2022/03/27 01:13:41;;;;;;;22.77;12.43;;;;;;;0.04;89.71;94012.81;2092313;28;20039;-83
2022/03/27 01:14:44;;;;;;;21.70;11.75;;;;;;;0.05;89.39;94007.25;2083285;28;20026;-81
2022/03/27 01:15:57;;;;;;;20.77;11.35;;;;;;;-0.01;89.45;94003.28;2086498;28;20032;-82
2022/03/27 01:17:08;;;;;;;24.85;12.65;;;;;;;-0.02;89.67;94007.78;2088615;28;20379;-82
2022/03/27 01:18:09;;;;;;;26.20;11.73;;;;;;;0.04;89.89;94003.06;2094560;28;20732;-82
2022/03/27 01:19:13;;;;;;;22.15;11.82;;;;;;;-0.02;88.49;94004.38;2097600;28;20028;-82
2022/03/27 01:20:22;;;;;;;20.10;12.15;;;;;;;0.06;89.21;94000.91;2095455;28;20020;-82
2022/03/27 01:21:23;;;;;;;21.75;11.93;;;;;;;0.08;88.51;94011.84;2095682;28;20020;-81
2022/03/27 01:22:24;;;;;;;23.30;11.73;;;;;;;0.12;88.45;93999.56;2092605;28;20039;-84
2022/03/27 01:23:25;;;;;;;20.02;11.40;;;;;;;0.17;87.84;93998.59;2092511;28;20039;-82
2022/03/27 01:24:27;;;;;;;23.25;12.13;;;;;;;0.03;87.58;94004.16;2079043;28;20410;-81
2022/03/27 01:25:28;;;;;;;22.63;11.38;;;;;;;-0.08;89.29;93997.81;2075331;28;20524;-82
2022/03/27 01:26:29;;;;;;;21.13;11.43;;;;;;;0.11;88.98;94002.53;2075305;28;20688;-85
2022/03/27 01:27:30;;;;;;;22.73;12.50;;;;;;;-0.03;89.89;94001.00;2089406;28;20035;-82
2022/03/27 01:28:31;;;;;;;20.48;11.52;;;;;;;-0.06;89.07;93993.75;2098349;28;20432;-81
2022/03/27 01:29:32;;;;;;;25.38;12.10;;;;;;;0.06;89.42;93994.88;2106063;28;20024;-80
2022/03/27 01:30:33;;;;;;;23.17;12.40;;;;;;;-0.01;88.70;93998.78;2094117;28;20052;-81
2022/03/27 01:31:34;;;;;;;22.88;11.38;;;;;;;0.02;89.05;93996.63;2078262;28;20191;-82
2022/03/27 01:32:35;;;;;;;23.83;12.13;;;;;;;-0.10;89.11;93989.47;2081216;28;20024;-82
2022/03/27 01:33:36;;;;;;;21.35;12.40;;;;;;;0.01;89.10;93992.47;2082340;28;20021;-82
2022/03/27 01:34:44;;;;;;;21.55;11.98;;;;;;;0.03;88.55;93987.63;2077025;28;20076;-82
2022/03/27 01:35:45;;;;;;;23.63;11.68;;;;;;;-0.12;88.60;93989.06;2090190;28;20021;-81
2022/03/27 01:36:46;;;;;;;23.35;12.60;;;;;;;-0.09;89.59;93988.38;2081136;28;20453;-81
2022/03/27 01:37:48;;;;;;;19.98;12.27;;;;;;;0.13;89.14;93988.00;2089415;28;20489;-82
2022/03/27 01:38:54;;;;;;;19.75;11.30;;;;;;;0.04;89.03;93984.69;2085456;28;20036;-82
2022/03/27 01:39:55;;;;;;;22.17;11.88;;;;;;;0.01;90.05;93980.09;2082341;28;20113;-80
2022/03/27 01:40:56;;;;;;;28.17;12.30;;;;;;;-0.11;90.50;93988.72;2093368;28;20039;-82
2022/03/27 01:41:57;;;;;;;21.02;11.50;;;;;;;-0.11;90.52;93988.72;2091760;28;20043;-82
2022/03/27 01:42:58;;;;;;;22.55;12.20;;;;;;;-0.16;90.10;93986.31;2097238;28;20020;-82
2022/03/27 01:44:00;;;;;;;20.92;10.80;;;;;;;-0.09;90.62;93983.13;2096966;28;20055;-83
2022/03/27 01:45:03;;;;;;;23.23;11.40;;;;;;;-0.12;89.91;93989.06;2091385;28;20029;-80
2022/03/27 01:46:04;;;;;;;28.92;11.77;;;;;;;-0.05;89.49;93984.78;2097467;28;20028;-82
2022/03/27 01:47:05;;;;;;;20.77;12.18;;;;;;;-0.02;88.67;93978.88;2097147;28;20096;-81
2022/03/27 01:48:06;;;;;;;22.02;11.73;;;;;;;-0.04;88.90;93983.69;2099806;28;20016;-83
2022/03/27 01:49:09;;;;;;;24.88;12.40;;;;;;;-0.15;90.08;93987.84;2089056;28;20055;-83
2022/03/27 01:50:10;;;;;;;23.13;11.57;;;;;;;-0.18;91.15;93983.22;2093435;28;20020;-82
2022/03/27 01:51:11;;;;;;;22.98;12.38;;;;;;;-0.28;90.46;93981.78;2090765;28;20029;-84
2022/03/27 01:52:15;;;;;;;25.98;13.10;;;;;;;-0.01;89.97;93987.53;2105310;28;20020;-83
2022/03/27 01:53:16;;;;;;;20.45;11.90;;;;;;;-0.06;89.66;93980.63;2106315;28;20020;-82
2022/03/27 01:54:19;;;;;;;21.00;11.35;;;;;;;-0.12;90.35;93983.81;2091581;28;20021;-83
2022/03/27 01:55:20;;;;;;;25.88;11.85;;;;;;;-0.04;89.81;93978.44;2087298;28;20032;-83
2022/03/27 01:56:21;;;;;;;25.45;11.73;;;;;;;-0.24;89.79;93981.91;2097280;28;20020;-82
2022/03/27 01:57:22;;;;;;;24.58;11.48;;;;;;;-0.25;91.16;93977.75;2088939;28;20021;-81
2022/03/27 01:58:23;;;;;;;24.65;11.23;;;;;;;-0.24;90.67;93978.53;2080704;28;20021;-80
2022/03/27 01:59:24;;;;;;;22.10;11.77;;;;;;;-0.24;90.89;93975.88;2077087;28;20061;-83
2022/03/27 02:00:25;;;;;;;30.00;12.80;;;;;;;-0.39;91.59;93972.81;2084984;28;20500;-80
2022/03/27 02:01:26;;;;;;;21.85;11.63;;;;;;;-0.41;91.83;93988.09;2099850;28;20082;-83
2022/03/27 02:02:27;;;;;;;24.58;11.95;;;;;;;-0.28;91.04;93983.66;2096398;28;20044;-81
2022/03/27 02:03:28;;;;;;;23.13;12.38;;;;;;;-0.26;91.34;93981.47;2080244;28;20040;-83
2022/03/27 02:04:29;;;;;;;24.52;12.43;;;;;;;-0.28;90.83;93981.03;2080795;28;20083;-81
2022/03/27 02:05:31;;;;;;;22.58;11.98;;;;;;;-0.28;90.69;93981.03;2094160;28;20024;-82
2022/03/27 02:06:32;;;;;;;23.92;12.35;;;;;;;-0.33;90.90;93979.38;2102734;28;20548;-83
2022/03/27 02:07:37;;;;;;;21.08;12.13;;;;;;;-0.40;91.56;93981.00;2107327;28;20047;-82
2022/03/27 02:08:39;;;;;;;22.38;11.50;;;;;;;-0.28;91.67;93981.03;2100002;28;20591;-81
2022/03/27 02:09:39;;;;;;;24.35;11.57;;;;;;;-0.25;91.15;93977.75;2103212;28;20036;-83
2022/03/27 02:12:15;;;;;;;;;;;;;;;-0.32;91.31;93972.25;2144147;27;20117;-81
2022/03/27 02:13:22;;;;;;;20.58;10.60;;;;;;;-0.35;92.17;93980.78;2129974;27;19926;-82
2022/03/27 02:14:23;;;;;;;21.67;11.25;;;;;;;-0.49;93.27;93975.06;2112077;27;20020;-82
2022/03/27 02:15:25;;;;;;;26.17;10.95;;;;;;;-0.40;93.66;93975.72;2116429;27;20027;-82
2022/03/27 02:16:26;;;;;;;23.65;11.75;;;;;;;-0.46;94.05;93974.41;2118937;27;20500;-81
2022/03/27 02:17:28;;;;;;;22.38;11.35;;;;;;;-0.49;94.49;93970.56;2114726;28;20062;-83
2022/03/27 02:18:30;;;;;;;24.45;11.63;;;;;;;-0.49;94.59;93983.69;2118154;27;20055;-82
2022/03/27 02:19:32;;;;;;;22.38;11.13;;;;;;;-0.46;94.04;93979.66;2119459;27;20376;-82
2022/03/27 02:20:32;;;;;;;19.48;11.05;;;;;;;-0.39;93.96;93978.06;2123242;27;20107;-80
2022/03/27 02:21:34;;;;;;;21.00;11.20;;;;;;;-0.41;93.44;93979.47;2116036;28;20031;-81
2022/03/27 02:22:35;;;;;;;23.27;12.32;;;;;;;-0.43;93.81;93976.41;2117793;27;20498;-80
2022/03/27 02:23:37;;;;;;;21.60;11.13;;;;;;;-0.49;93.96;93980.31;2112290;27;20021;-80
2022/03/27 02:24:38;;;;;;;23.95;11.35;;;;;;;-0.52;94.56;93979.13;2111531;27;20020;-82
2022/03/27 02:25:39;;;;;;;27.58;11.38;;;;;;;-0.39;94.22;93977.28;2107034;28;20050;-82
2022/03/27 02:26:46;;;;;;;22.05;12.40;;;;;;;-0.36;94.36;93985.25;2110106;27;20122;-82
2022/03/27 02:27:47;;;;;;;23.67;12.38;;;;;;;-0.49;94.83;93982.94;2111624;28;20020;-81
2022/03/27 02:28:48;;;;;;;22.58;12.32;;;;;;;-0.58;95.90;93980.38;2107556;27;20818;-83
2022/03/27 02:29:49;;;;;;;19.85;10.68;;;;;;;-0.56;95.48;93979.00;2112866;27;20020;-83
2022/03/27 02:30:51;;;;;;;21.35;11.10;;;;;;;-0.51;95.72;93980.66;2116325;27;20141;-83
2022/03/27 02:31:52;;;;;;;27.05;12.98;;;;;;;-0.48;96.57;93977.38;2117221;28;20487;-81
2022/03/27 02:32:53;;;;;;;22.02;11.65;;;;;;;-0.68;96.41;93978.94;2113416;27;20148;-82
2022/03/27 02:33:54;;;;;;;24.02;12.30;;;;;;;-0.65;96.62;93980.16;2117036;28;20016;-80
2022/03/27 02:34:55;;;;;;;21.33;11.05;;;;;;;-0.70;96.53;93980.34;2117361;28;20072;-80
2022/03/27 02:35:56;;;;;;;26.42;12.38;;;;;;;-0.74;97.42;93979.47;2121276;27;20488;-82
2022/03/27 02:36:57;;;;;;;27.58;12.80;;;;;;;-0.85;98.07;93979.09;2124884;27;20472;-82
2022/03/27 02:37:58;;;;;;;22.38;11.13;;;;;;;-0.73;97.28;93975.75;2111109;27;20026;-81
2022/03/27 02:38:59;;;;;;;20.90;11.68;;;;;;;-0.58;96.15;93975.16;2113885;28;20026;-83
2022/03/27 02:40:00;;;;;;;21.65;11.52;;;;;;;-0.58;95.76;93977.78;2122374;27;20019;-81
2022/03/27 02:41:01;;;;;;;23.88;11.77;;;;;;;-0.63;95.61;93968.25;2124011;27;20075;-80
2022/03/27 02:42:03;;;;;;;24.08;11.82;;;;;;;-0.66;95.86;93974.16;2125105;27;20109;-80
2022/03/27 02:43:04;;;;;;;23.42;12.02;;;;;;;-0.66;95.73;93974.16;2119233;27;20022;-82
2022/03/27 02:44:05;;;;;;;30.60;11.77;;;;;;;-0.64;95.48;93974.59;2126358;27;20380;-83
2022/03/27 02:45:07;;;;;;;24.83;11.48;;;;;;;-0.54;95.66;93978.66;2112833;28;20027;-82
2022/03/27 02:46:08;;;;;;;21.60;10.90;;;;;;;-0.68;95.93;93973.69;2110343;28;20027;-84
2022/03/27 02:47:09;;;;;;;20.98;10.75;;;;;;;-0.76;97.25;93977.94;2123926;27;20107;-81
2022/03/27 02:48:10;;;;;;;20.00;11.43;;;;;;;-0.73;97.81;93970.50;2129629;27;20051;-80
2022/03/27 02:49:11;;;;;;;22.13;11.20;;;;;;;-0.74;98.20;93977.63;2118177;27;20019;-83
2022/03/27 02:50:12;;;;;;;23.45;11.23;;;;;;;-0.81;97.48;93972.13;2106277;28;20507;-80
2022/03/27 02:51:13;;;;;;;26.60;11.90;;;;;;;-0.92;97.56;93969.13;2120008;27;20062;-83
2022/03/27 02:52:14;;;;;;;21.55;10.80;;;;;;;-0.88;98.87;93969.22;2106130;28;20028;-80
2022/03/27 02:53:15;;;;;;;21.88;11.70;;;;;;;-0.87;97.93;93973.41;2118932;27;20015;-83
2022/03/27 02:54:16;;;;;;;22.08;10.40;;;;;;;-0.89;98.10;93973.72;2116126;28;20023;-83
2022/03/27 02:55:17;;;;;;;19.27;10.82;;;;;;;-0.93;97.81;93962.31;2106817;28;20021;-82
2022/03/27 02:56:20;;;;;;;23.70;11.55;;;;;;;-0.99;97.34;93973.34;2110306;27;20131;-80
2022/03/27 02:57:21;;;;;;;22.60;10.57;;;;;;;-0.90;98.03;93971.44;2116365;27;20031;-81
2022/03/27 02:58:22;;;;;;;20.75;10.57;;;;;;;-0.93;96.72;93970.19;2106134;28;20024;-80
2022/03/27 02:59:25;;;;;;;25.98;11.68;;;;;;;-1.04;98.68;93974.31;2103557;28;20062;-82
2022/03/27 03:00:26;;;;;;;25.27;11.65;;;;;;;-0.77;97.79;93970.38;2112805;27;20031;-84
2022/03/27 03:01:27;;;;;;;24.60;12.48;;;;;;;-1.00;96.91;93975.22;2117872;27;20039;-82
2022/03/27 03:02:28;;;;;;;22.10;10.98;;;;;;;-0.88;98.04;93970.03;2105953;28;20131;-81
2022/03/27 03:03:30;;;;;;;24.58;11.50;;;;;;;-1.07;97.60;93970.47;2112614;28;20027;-80
2022/03/27 03:04:34;;;;;;;19.55;10.20;;;;;;;-0.97;99.10;93968.53;2131001;27;20056;-81
2022/03/27 03:05:39;;;;;;;20.73;11.02;;;;;;;-1.04;97.70;93969.84;2126166;27;20150;-82
2022/03/27 03:06:41;;;;;;;19.60;10.93;;;;;;;-0.99;98.67;93971.50;2119296;28;20765;-81
2022/03/27 03:07:42;;;;;;;25.80;11.02;;;;;;;-0.79;97.75;93964.66;2107194;28;20028;-82
2022/03/27 03:08:43;;;;;;;23.75;11.18;;;;;;;-0.87;98.44;93966.31;2114210;28;20030;-82
2022/03/27 03:09:44;;;;;;;22.77;11.27;;;;;;;-0.80;98.27;93971.03;2118743;27;20488;-82
2022/03/27 03:10:45;;;;;;;18.60;11.10;;;;;;;-0.78;97.10;93971.47;2114088;28;20473;-80
2022/03/27 03:11:46;;;;;;;22.60;11.27;;;;;;;-0.91;98.12;93969.91;2110110;28;20076;-81
2022/03/27 03:12:47;;;;;;;22.70;11.52;;;;;;;-0.74;97.57;93971.59;2111528;28;20023;-80
2022/03/27 03:13:51;;;;;;;19.27;10.75;;;;;;;-0.92;97.03;93971.75;2115978;28;20027;-83
2022/03/27 03:14:55;;;;;;;20.75;10.75;;;;;;;-1.02;98.06;93972.13;2126590;27;20027;-81
2022/03/27 03:15:57;;;;;;;23.00;10.70;;;;;;;-1.09;97.14;93972.66;2120960;27;20012;-81
2022/03/27 03:17:00;;;;;;;19.95;11.35;;;;;;;-1.09;98.37;93964.78;2110528;28;20025;-80
2022/03/27 03:18:02;;;;;;;26.25;11.18;;;;;;;-1.02;98.51;93975.53;2104394;28;20024;-80
2022/03/27 03:19:04;;;;;;;19.33;12.05;;;;;;;-1.08;98.82;93966.31;2104325;28;20027;-80
2022/03/27 03:20:07;;;;;;;22.77;11.38;;;;;;;-0.92;98.93;93966.50;2103604;28;20028;-81
2022/03/27 03:21:08;;;;;;;22.52;11.82;;;;;;;-0.90;98.53;93971.44;2107146;27;20032;-80
2022/03/27 03:22:09;;;;;;;26.90;11.35;;;;;;;-1.06;98.68;93973.84;2105824;28;20518;-81
2022/03/27 03:23:11;;;;;;;22.48;11.27;;;;;;;-1.04;98.89;93967.22;2109682;28;20031;-80
2022/03/27 03:24:12;;;;;;;24.58;11.07;;;;;;;-1.14;100.00;93970.22;2108640;27;20054;-80
2022/03/27 03:25:13;;;;;;;25.73;11.40;;;;;;;-1.16;100.00;93964.53;2111769;28;20026;-81
2022/03/27 03:26:14;;;;;;;23.75;11.05;;;;;;;-1.05;100.00;93970.16;2091261;28;20017;-79
2022/03/27 03:27:15;;;;;;;28.52;11.32;;;;;;;-1.04;100.00;93969.84;2102293;28;20054;-83
2022/03/27 03:28:16;;;;;;;25.05;11.07;;;;;;;-1.02;100.00;93972.13;2110400;28;20019;-81
2022/03/27 03:29:18;;;;;;;26.45;11.65;;;;;;;-0.98;100.00;93977.50;2103668;28;20079;-81
2022/03/27 03:30:19;;;;;;;27.15;11.52;;;;;;;-1.14;100.00;93972.06;2106990;28;20115;-84
2022/03/27 03:31:20;;;;;;;24.80;10.77;;;;;;;-1.04;100.00;93974.31;2098139;28;20063;-82
2022/03/27 03:32:23;;;;;;;27.58;11.13;;;;;;;-1.16;100.00;93963.75;2100877;28;20397;-81
2022/03/27 03:33:26;;;;;;;23.73;10.38;;;;;;;-1.11;100.00;93961.69;2107732;28;20358;-82
2022/03/27 03:34:27;;;;;;;21.25;10.27;;;;;;;-1.12;100.00;93973.28;2108037;27;20036;-80
2022/03/27 03:35:28;;;;;;;19.63;10.93;;;;;;;-1.03;100.00;93971.38;2098363;28;20123;-82
2022/03/27 03:36:29;;;;;;;24.80;11.38;;;;;;;-1.15;99.50;93976.53;2101611;28;20532;-82
2022/03/27 03:37:32;;;;;;;24.05;11.32;;;;;;;-1.17;100.00;93972.72;2106719;28;20484;-83
2022/03/27 03:38:33;;;;;;;23.73;11.63;;;;;;;-1.15;100.00;93963.44;2111417;28;20428;-81
2022/03/27 03:39:34;;;;;;;25.13;12.10;;;;;;;-1.20;100.00;93966.25;2109772;28;20111;-82
2022/03/27 03:40:35;;;;;;;22.77;11.02;;;;;;;-0.97;100.00;93973.78;2109430;28;20020;-82
2022/03/27 03:41:36;;;;;;;25.13;11.85;;;;;;;-0.93;100.00;93974.69;2101189;28;20020;-81
2022/03/27 03:42:37;;;;;;;22.70;11.30;;;;;;;-1.06;100.00;93968.59;2104101;28;20363;-81
2022/03/27 03:43:38;;;;;;;24.42;11.43;;;;;;;-0.96;100.00;93972.72;2106839;28;20054;-82
2022/03/27 03:44:41;;;;;;;23.80;11.55;;;;;;;-0.92;100.00;93970.97;2102211;28;20028;-82
2022/03/27 03:45:42;;;;;;;26.67;12.15;;;;;;;-0.92;100.00;93966.50;2099473;28;20714;-82
2022/03/27 03:46:43;;;;;;;25.25;12.25;;;;;;;-0.87;100.00;93966.31;2115060;28;20036;-81
2022/03/27 03:47:44;;;;;;;24.30;11.73;;;;;;;-0.86;100.00;93977.56;2111469;27;20024;-81
2022/03/27 03:48:45;;;;;;;28.80;10.73;;;;;;;-0.90;100.00;93966.94;2116362;27;20031;-81
2022/03/27 03:49:46;;;;;;;22.63;10.75;;;;;;;-0.85;100.00;93977.22;2110179;28;20028;-81
2022/03/27 03:50:47;;;;;;;20.95;11.57;;;;;;;-0.78;100.00;93972.25;2114897;28;20027;-82
2022/03/27 03:51:48;;;;;;;24.35;11.38;;;;;;;-0.80;99.95;93971.78;2101387;28;20021;-80
2022/03/27 03:52:49;;;;;;;21.25;11.25;;;;;;;-0.67;99.81;93963.97;2109884;27;20089;-81
2022/03/27 03:53:50;;;;;;;22.42;12.20;;;;;;;-0.83;98.78;93969.81;2117570;27;20080;-82
2022/03/27 03:54:51;;;;;;;24.67;11.52;;;;;;;-0.95;100.00;93969.75;2106516;28;20419;-81
2022/03/27 03:55:52;;;;;;;28.52;11.60;;;;;;;-0.94;100.00;93970.53;2106673;28;20514;-83
2022/03/27 03:56:53;;;;;;;24.70;12.38;;;;;;;-1.08;100.00;93968.19;2114953;28;20114;-81
2022/03/27 03:57:54;;;;;;;26.58;12.85;;;;;;;-1.18;100.00;93964.09;2095078;28;20139;-80
2022/03/27 03:58:55;;;;;;;25.55;12.48;;;;;;;-0.92;100.00;93965.72;2090191;28;20060;-83
2022/03/27 03:59:56;;;;;;;26.83;12.25;;;;;;;-0.99;100.00;93973.34;2089561;28;20085;-83
2022/03/27 04:00:57;;;;;;;31.02;11.68;;;;;;;-1.04;100.00;93969.06;2099086;28;20093;-80
2022/03/27 04:02:00;;;;;;;28.08;12.65;;;;;;;-1.01;100.00;93960.53;2105928;28;20448;-81
2022/03/27 04:03:02;;;;;;;23.38;12.13;;;;;;;-1.00;100.00;93962.09;2110655;28;20028;-81
2022/03/27 04:04:03;;;;;;;25.10;11.13;;;;;;;-0.85;100.00;93969.38;2090593;28;20050;-82
2022/03/27 04:05:05;;;;;;;25.05;11.48;;;;;;;-0.53;98.77;93961.81;2103435;28;20023;-80
2022/03/27 04:06:07;;;;;;;26.02;12.35;;;;;;;-0.70;99.87;93967.22;2102297;28;20024;-82
2022/03/27 04:07:08;;;;;;;24.17;11.95;;;;;;;-0.81;100.00;93964.25;2093040;28;20023;-81
2022/03/27 04:08:09;;;;;;;21.67;11.35;;;;;;;-0.83;100.00;93972.44;2096189;28;20027;-81
2022/03/27 04:09:10;;;;;;;25.38;12.80;;;;;;;-0.93;100.00;93966.81;2106561;28;20424;-82
2022/03/27 04:10:12;;;;;;;29.55;11.40;;;;;;;-0.85;100.00;93965.97;2091714;28;20024;-82
2022/03/27 04:11:16;;;;;;;21.13;11.45;;;;;;;-0.77;99.65;93967.75;2099723;28;20020;-80
2022/03/27 04:12:17;;;;;;;22.95;11.75;;;;;;;-0.83;99.70;93969.81;2102901;28;20062;-81
2022/03/27 04:13:18;;;;;;;22.73;11.27;;;;;;;-0.52;97.01;93961.50;2102761;28;20120;-83
2022/03/27 04:14:19;;;;;;;26.35;11.63;;;;;;;-0.80;99.53;93971.03;2104297;28;20032;-81
2022/03/27 04:15:20;;;;;;;25.25;12.60;;;;;;;-0.64;98.70;93965.94;2096539;28;20032;-81
2022/03/27 04:16:22;;;;;;;25.52;11.93;;;;;;;-0.75;96.94;93970.81;2105110;28;20051;-80
2022/03/27 04:17:23;;;;;;;24.23;11.50;;;;;;;-0.92;99.06;93960.47;2114381;27;20358;-82
2022/03/27 04:18:25;;;;;;;22.20;11.35;;;;;;;-1.03;98.74;93962.72;2111803;28;20049;-81
2022/03/27 04:19:26;;;;;;;23.80;11.57;;;;;;;-1.03;99.72;93967.97;2105318;28;20521;-81
2022/03/27 04:20:27;;;;;;;24.30;11.80;;;;;;;-1.02;100.00;93959.00;2100076;28;20115;-80
2022/03/27 04:21:28;;;;;;;25.17;11.20;;;;;;;-1.06;99.84;93964.13;2110976;28;20116;-81
2022/03/27 04:22:29;;;;;;;27.25;11.25;;;;;;;-1.00;99.85;93961.34;2081876;28;20116;-82
2022/03/27 04:23:30;;;;;;;23.55;11.48;;;;;;;-1.00;100.00;93966.56;2093203;28;20561;-81
2022/03/27 04:24:31;;;;;;;22.08;11.63;;;;;;;-1.06;100.00;93964.13;2108758;28;20020;-80
2022/03/27 04:25:32;;;;;;;21.10;10.75;;;;;;;-1.18;100.00;93968.56;2110532;28;20098;-81
2022/03/27 04:26:34;;;;;;;22.48;11.50;;;;;;;-1.15;100.00;93958.19;2105801;28;20024;-81
2022/03/27 04:27:35;;;;;;;23.35;10.60;;;;;;;-1.18;100.00;93960.69;2100183;28;20021;-82
2022/03/27 04:28:38;;;;;;;21.95;10.95;;;;;;;-1.18;100.00;93958.09;2099345;27;20017;-80
2022/03/27 04:29:39;;;;;;;22.23;11.73;;;;;;;-1.09;100.00;93967.41;2098695;28;20026;-84
2022/03/27 04:30:45;;;;;;;21.52;11.00;;;;;;;-1.23;100.00;93960.88;2098553;28;20689;-81
2022/03/27 04:31:45;;;;;;;21.25;11.63;;;;;;;-1.29;100.00;93961.06;2112279;27;20039;-82
2022/03/27 04:32:47;;;;;;;26.58;12.20;;;;;;;-1.34;100.00;93956.00;2123266;27;20015;-81
2022/03/27 04:33:48;;;;;;;23.10;11.55;;;;;;;-1.25;100.00;93960.44;2114839;28;20051;-82
2022/03/27 04:34:50;;;;;;;27.25;11.82;;;;;;;-1.32;100.00;93963.56;2103159;28;20497;-81
2022/03/27 04:35:51;;;;;;;21.15;11.43;;;;;;;-1.35;100.00;93959.72;2100694;28;20035;-82
2022/03/27 04:36:53;;;;;;;20.10;11.50;;;;;;;-1.25;100.00;93963.81;2101975;28;20103;-80
2022/03/27 04:37:54;;;;;;;21.48;10.73;;;;;;;-1.27;100.00;93960.75;2100932;28;20020;-81
2022/03/27 04:39:04;;;;;;;22.20;11.73;;;;;;;-1.33;100.00;93965.41;2098818;28;20470;-81
2022/03/27 04:40:05;;;;;;;25.65;10.85;;;;;;;-1.27;100.00;93964.16;2114030;27;20034;-84
2022/03/27 04:41:06;;;;;;;19.27;11.07;;;;;;;-1.28;100.00;93962.59;2106320;28;20035;-84
2022/03/27 04:42:09;;;;;;;26.63;11.77;;;;;;;-1.43;100.00;93965.78;2109556;28;20464;-81
2022/03/27 04:43:10;;;;;;;20.90;10.48;;;;;;;-1.29;100.00;93971.56;2097889;28;20030;-81
2022/03/27 04:44:10;;;;;;;25.75;11.05;;;;;;;-1.22;100.00;93971.06;2105209;28;20020;-83
2022/03/27 04:45:12;;;;;;;26.52;11.20;;;;;;;-1.31;100.00;93965.13;2119170;27;20055;-81
2022/03/27 04:46:14;;;;;;;26.38;12.25;;;;;;;-1.30;100.00;93969.25;2113312;28;20081;-81
2022/03/27 04:47:15;;;;;;;22.17;11.23;;;;;;;-1.43;100.00;93971.03;2109808;28;20541;-80
2022/03/27 04:48:16;;;;;;;22.98;11.65;;;;;;;-1.46;100.00;93968.28;2099825;28;20085;-83